sensor_id;sensor_type;location;lat;lon;timestamp;temperature;humidity
38359;DHT22;42072;48.044;14.416;2023-05-10T00:00:26;10.30;1.00
38359;DHT22;42072;48.044;14.416;2023-05-10T00:02:53;10.30;1.00
38359;DHT22;42072;48.044;14.416;2023-05-10T00:05:21;10.30;1.00
38359;DHT22;42072;48.044;14.416;2023-05-10T00:07:48;10.30;1.00
38359;DHT22;42072;48.044;14.416;2023-05-10T00:10:15;10.20;1.00
38359;DHT22;42072;48.044;14.416;2023-05-10T00:12:42;10.20;1.00
38359;DHT22;42072;48.044;14.416;2023-05-10T00:15:10;10.20;1.00
38359;DHT22;42072;48.044;14.416;2023-05-10T00:17:37;10.10;1.00
38359;DHT22;42072;48.044;14.416;2023-05-10T00:20:05;10.10;1.00
38359;DHT22;42072;48.044;14.416;2023-05-10T00:22:33;10.10;1.00
38359;DHT22;42072;48.044;14.416;2023-05-10T00:25:00;10.10;1.00
38359;DHT22;42072;48.044;14.416;2023-05-10T00:27:27;10.10;1.00
38359;DHT22;42072;48.044;14.416;2023-05-10T00:29:54;10.00;1.00
38359;DHT22;42072;48.044;14.416;2023-05-10T00:32:21;10.00;1.00
38359;DHT22;42072;48.044;14.416;2023-05-10T00:34:49;9.80;1.00
38359;DHT22;42072;48.044;14.416;2023-05-10T00:37:16;9.80;1.00
38359;DHT22;42072;48.044;14.416;2023-05-10T00:39:43;9.70;1.00
38359;DHT22;42072;48.044;14.416;2023-05-10T00:42:10;9.70;1.00
38359;DHT22;42072;48.044;14.416;2023-05-10T00:44:37;9.60;1.00
38359;DHT22;42072;48.044;14.416;2023-05-10T00:47:05;9.50;1.00
38359;DHT22;42072;48.044;14.416;2023-05-10T00:49:32;9.50;1.00
38359;DHT22;42072;48.044;14.416;2023-05-10T00:52:00;9.50;1.00
38359;DHT22;42072;48.044;14.416;2023-05-10T00:54:28;9.60;1.00
38359;DHT22;42072;48.044;14.416;2023-05-10T00:56:56;9.50;1.00
38359;DHT22;42072;48.044;14.416;2023-05-10T00:59:24;9.50;1.00
38359;DHT22;42072;48.044;14.416;2023-05-10T01:01:52;9.40;1.00
38359;DHT22;42072;48.044;14.416;2023-05-10T01:04:20;9.30;1.00
38359;DHT22;42072;48.044;14.416;2023-05-10T01:06:53;9.20;5.80
38359;DHT22;42072;48.044;14.416;2023-05-10T01:09:21;9.10;15.10
38359;DHT22;42072;48.044;14.416;2023-05-10T01:11:49;9.10;24.40
38359;DHT22;42072;48.044;14.416;2023-05-10T01:14:18;9.00;32.10
38359;DHT22;42072;48.044;14.416;2023-05-10T01:16:48;8.90;47.80
38359;DHT22;42072;48.044;14.416;2023-05-10T01:19:34;8.90;65.40
38359;DHT22;42072;48.044;14.416;2023-05-10T01:46:38;8.40;99.90
38359;DHT22;42072;48.044;14.416;2023-05-10T01:49:16;8.40;99.90
38359;DHT22;42072;48.044;14.416;2023-05-10T01:51:50;8.30;99.90
38359;DHT22;42072;48.044;14.416;2023-05-10T01:54:21;8.30;99.90
38359;DHT22;42072;48.044;14.416;2023-05-10T01:56:55;8.30;99.90
38359;DHT22;42072;48.044;14.416;2023-05-10T01:59:27;8.30;99.90
38359;DHT22;42072;48.044;14.416;2023-05-10T02:01:58;8.30;99.90
38359;DHT22;42072;48.044;14.416;2023-05-10T02:04:27;8.20;99.90
38359;DHT22;42072;48.044;14.416;2023-05-10T02:06:55;8.20;99.90
38359;DHT22;42072;48.044;14.416;2023-05-10T02:09:25;8.10;99.90
38359;DHT22;42072;48.044;14.416;2023-05-10T02:11:55;8.10;99.90
38359;DHT22;42072;48.044;14.416;2023-05-10T02:14:26;8.20;99.90
38359;DHT22;42072;48.044;14.416;2023-05-10T02:16:54;8.40;99.90
38359;DHT22;42072;48.044;14.416;2023-05-10T02:19:23;8.50;99.90
38359;DHT22;42072;48.044;14.416;2023-05-10T02:21:52;8.80;99.90
38359;DHT22;42072;48.044;14.416;2023-05-10T02:24:20;9.00;99.90
38359;DHT22;42072;48.044;14.416;2023-05-10T02:26:49;9.10;99.90
38359;DHT22;42072;48.044;14.416;2023-05-10T02:29:18;9.20;99.90
38359;DHT22;42072;48.044;14.416;2023-05-10T02:31:46;9.30;99.90
38359;DHT22;42072;48.044;14.416;2023-05-10T02:34:14;9.40;99.90
38359;DHT22;42072;48.044;14.416;2023-05-10T02:36:42;9.50;99.90
38359;DHT22;42072;48.044;14.416;2023-05-10T02:39:10;9.50;99.90
38359;DHT22;42072;48.044;14.416;2023-05-10T02:41:41;9.60;99.90
38359;DHT22;42072;48.044;14.416;2023-05-10T02:44:09;9.60;99.90
38359;DHT22;42072;48.044;14.416;2023-05-10T02:46:37;9.60;99.90
38359;DHT22;42072;48.044;14.416;2023-05-10T02:49:04;9.60;99.90
38359;DHT22;42072;48.044;14.416;2023-05-10T02:51:35;9.60;99.90
38359;DHT22;42072;48.044;14.416;2023-05-10T02:54:12;9.60;99.90
38359;DHT22;42072;48.044;14.416;2023-05-10T02:56:51;9.60;99.90
38359;DHT22;42072;48.044;14.416;2023-05-10T02:59:20;9.60;99.90
38359;DHT22;42072;48.044;14.416;2023-05-10T03:01:48;9.60;99.90
38359;DHT22;42072;48.044;14.416;2023-05-10T03:04:15;9.60;99.90
38359;DHT22;42072;48.044;14.416;2023-05-10T03:06:42;9.60;99.90
38359;DHT22;42072;48.044;14.416;2023-05-10T03:09:11;9.70;99.90
38359;DHT22;42072;48.044;14.416;2023-05-10T03:14:33;9.80;99.90
38359;DHT22;42072;48.044;14.416;2023-05-10T03:17:10;9.80;99.90
38359;DHT22;42072;48.044;14.416;2023-05-10T03:20:04;9.80;99.90
38359;DHT22;42072;48.044;14.416;2023-05-10T03:22:47;9.80;99.90
38359;DHT22;42072;48.044;14.416;2023-05-10T03:25:16;9.80;99.90
38359;DHT22;42072;48.044;14.416;2023-05-10T03:27:44;9.80;99.90
38359;DHT22;42072;48.044;14.416;2023-05-10T03:30:12;9.80;99.90
38359;DHT22;42072;48.044;14.416;2023-05-10T03:32:40;9.90;99.90
38359;DHT22;42072;48.044;14.416;2023-05-10T03:35:12;9.90;99.90
38359;DHT22;42072;48.044;14.416;2023-05-10T03:37:40;9.90;99.90
38359;DHT22;42072;48.044;14.416;2023-05-10T03:40:08;10.00;98.50
38359;DHT22;42072;48.044;14.416;2023-05-10T03:42:35;10.10;96.60
38359;DHT22;42072;48.044;14.416;2023-05-10T03:45:03;10.10;98.10
38359;DHT22;42072;48.044;14.416;2023-05-10T03:47:30;10.10;96.50
38359;DHT22;42072;48.044;14.416;2023-05-10T03:49:57;10.10;94.10
38359;DHT22;42072;48.044;14.416;2023-05-10T03:52:24;10.20;84.90
38359;DHT22;42072;48.044;14.416;2023-05-10T03:54:52;10.20;68.60
38359;DHT22;42072;48.044;14.416;2023-05-10T03:57:19;10.30;59.30
38359;DHT22;42072;48.044;14.416;2023-05-10T03:59:46;10.40;41.40
38359;DHT22;42072;48.044;14.416;2023-05-10T04:02:13;10.40;32.40
38359;DHT22;42072;48.044;14.416;2023-05-10T04:04:40;10.40;39.20
38359;DHT22;42072;48.044;14.416;2023-05-10T04:07:08;10.50;35.90
38359;DHT22;42072;48.044;14.416;2023-05-10T04:09:36;10.60;30.00
38359;DHT22;42072;48.044;14.416;2023-05-10T04:12:03;10.60;31.70
38359;DHT22;42072;48.044;14.416;2023-05-10T04:14:31;10.70;23.80
38359;DHT22;42072;48.044;14.416;2023-05-10T04:16:58;10.80;16.70
38359;DHT22;42072;48.044;14.416;2023-05-10T04:19:29;11.00;10.10
38359;DHT22;42072;48.044;14.416;2023-05-10T04:21:57;11.20;1.00
38359;DHT22;42072;48.044;14.416;2023-05-10T04:24:25;11.20;1.00
38359;DHT22;42072;48.044;14.416;2023-05-10T04:26:54;11.30;1.00
38359;DHT22;42072;48.044;14.416;2023-05-10T04:29:23;11.40;1.00
38359;DHT22;42072;48.044;14.416;2023-05-10T04:31:51;11.30;1.00
38359;DHT22;42072;48.044;14.416;2023-05-10T04:34:18;11.30;1.00
38359;DHT22;42072;48.044;14.416;2023-05-10T04:36:47;11.30;1.00
38359;DHT22;42072;48.044;14.416;2023-05-10T04:39:14;11.30;1.00
38359;DHT22;42072;48.044;14.416;2023-05-10T04:41:41;11.40;1.00
38359;DHT22;42072;48.044;14.416;2023-05-10T04:44:08;11.30;1.00
38359;DHT22;42072;48.044;14.416;2023-05-10T04:46:35;11.40;1.00
38359;DHT22;42072;48.044;14.416;2023-05-10T04:49:03;11.50;1.00
38359;DHT22;42072;48.044;14.416;2023-05-10T04:51:30;11.60;1.00
38359;DHT22;42072;48.044;14.416;2023-05-10T04:53:58;11.70;1.00
38359;DHT22;42072;48.044;14.416;2023-05-10T04:56:32;11.80;1.00
38359;DHT22;42072;48.044;14.416;2023-05-10T04:59:00;11.90;1.00
38359;DHT22;42072;48.044;14.416;2023-05-10T05:01:28;11.90;1.00
38359;DHT22;42072;48.044;14.416;2023-05-10T05:03:55;11.90;1.00
38359;DHT22;42072;48.044;14.416;2023-05-10T05:06:22;11.80;1.00
38359;DHT22;42072;48.044;14.416;2023-05-10T05:08:51;11.80;1.00
38359;DHT22;42072;48.044;14.416;2023-05-10T05:11:18;11.80;1.00
38359;DHT22;42072;48.044;14.416;2023-05-10T05:13:46;11.90;1.00
38359;DHT22;42072;48.044;14.416;2023-05-10T05:16:13;11.90;1.00
38359;DHT22;42072;48.044;14.416;2023-05-10T05:18:40;11.90;1.00
38359;DHT22;42072;48.044;14.416;2023-05-10T05:21:18;11.70;1.00
38359;DHT22;42072;48.044;14.416;2023-05-10T05:23:46;11.80;1.00
38359;DHT22;42072;48.044;14.416;2023-05-10T05:26:13;11.70;1.00
38359;DHT22;42072;48.044;14.416;2023-05-10T05:28:42;11.70;1.00
38359;DHT22;42072;48.044;14.416;2023-05-10T05:31:09;11.70;1.00
38359;DHT22;42072;48.044;14.416;2023-05-10T05:33:37;11.90;1.00
38359;DHT22;42072;48.044;14.416;2023-05-10T05:36:05;12.00;1.00
38359;DHT22;42072;48.044;14.416;2023-05-10T05:38:32;12.00;1.00
38359;DHT22;42072;48.044;14.416;2023-05-10T05:41:00;12.00;1.00
38359;DHT22;42072;48.044;14.416;2023-05-10T05:43:27;12.00;1.00
38359;DHT22;42072;48.044;14.416;2023-05-10T05:45:55;12.10;1.00
38359;DHT22;42072;48.044;14.416;2023-05-10T05:48:24;12.20;1.00
38359;DHT22;42072;48.044;14.416;2023-05-10T05:50:55;12.20;1.00
38359;DHT22;42072;48.044;14.416;2023-05-10T05:53:23;12.20;1.00
38359;DHT22;42072;48.044;14.416;2023-05-10T05:55:55;12.20;1.00
38359;DHT22;42072;48.044;14.416;2023-05-10T05:58:23;12.30;1.00
38359;DHT22;42072;48.044;14.416;2023-05-10T06:00:51;12.30;1.00
38359;DHT22;42072;48.044;14.416;2023-05-10T06:03:19;12.40;1.00
38359;DHT22;42072;48.044;14.416;2023-05-10T06:05:46;12.50;1.00
38359;DHT22;42072;48.044;14.416;2023-05-10T06:08:13;12.50;1.00
38359;DHT22;42072;48.044;14.416;2023-05-10T06:10:41;12.50;1.00
38359;DHT22;42072;48.044;14.416;2023-05-10T06:13:08;12.40;1.00
38359;DHT22;42072;48.044;14.416;2023-05-10T06:15:35;12.50;13.40
38359;DHT22;42072;48.044;14.416;2023-05-10T06:18:03;12.60;25.90
38359;DHT22;42072;48.044;14.416;2023-05-10T06:20:30;12.60;1.00
38359;DHT22;42072;48.044;14.416;2023-05-10T06:22:58;12.60;2.00
38359;DHT22;42072;48.044;14.416;2023-05-10T06:25:25;12.60;7.90
38359;DHT22;42072;48.044;14.416;2023-05-10T06:27:53;12.70;19.50
38359;DHT22;42072;48.044;14.416;2023-05-10T06:30:25;12.80;22.50
38359;DHT22;42072;48.044;14.416;2023-05-10T06:32:56;12.90;32.60
38359;DHT22;42072;48.044;14.416;2023-05-10T06:35:24;12.90;63.20
38359;DHT22;42072;48.044;14.416;2023-05-10T06:37:52;13.00;65.90
38359;DHT22;42072;48.044;14.416;2023-05-10T06:40:19;13.10;67.90
38359;DHT22;42072;48.044;14.416;2023-05-10T06:42:47;13.20;55.10
38359;DHT22;42072;48.044;14.416;2023-05-10T06:45:15;13.30;43.40
38359;DHT22;42072;48.044;14.416;2023-05-10T06:47:43;13.20;37.70
38359;DHT22;42072;48.044;14.416;2023-05-10T06:50:11;13.10;38.10
38359;DHT22;42072;48.044;14.416;2023-05-10T06:52:38;13.20;39.40
38359;DHT22;42072;48.044;14.416;2023-05-10T06:55:06;13.30;44.10
38359;DHT22;42072;48.044;14.416;2023-05-10T06:57:33;13.20;37.10
38359;DHT22;42072;48.044;14.416;2023-05-10T07:00:02;13.30;49.30
38359;DHT22;42072;48.044;14.416;2023-05-10T07:02:31;13.40;40.90
38359;DHT22;42072;48.044;14.416;2023-05-10T07:04:58;13.50;39.70
38359;DHT22;42072;48.044;14.416;2023-05-10T07:07:29;13.60;18.20
38359;DHT22;42072;48.044;14.416;2023-05-10T07:09:57;13.50;17.90
38359;DHT22;42072;48.044;14.416;2023-05-10T07:12:24;13.50;10.20
38359;DHT22;42072;48.044;14.416;2023-05-10T07:14:52;13.50;28.30
38359;DHT22;42072;48.044;14.416;2023-05-10T07:17:19;13.50;21.80
38359;DHT22;42072;48.044;14.416;2023-05-10T07:19:47;13.70;11.50
38359;DHT22;42072;48.044;14.416;2023-05-10T07:22:17;13.70;3.10
38359;DHT22;42072;48.044;14.416;2023-05-10T07:24:44;13.90;1.00
38359;DHT22;42072;48.044;14.416;2023-05-10T07:27:12;14.00;1.00
38359;DHT22;42072;48.044;14.416;2023-05-10T07:29:39;14.10;1.00
38359;DHT22;42072;48.044;14.416;2023-05-10T07:32:07;14.20;1.00
38359;DHT22;42072;48.044;14.416;2023-05-10T07:34:34;14.20;1.00
38359;DHT22;42072;48.044;14.416;2023-05-10T07:37:01;14.40;1.00
38359;DHT22;42072;48.044;14.416;2023-05-10T07:39:29;14.20;1.00
38359;DHT22;42072;48.044;14.416;2023-05-10T07:41:56;14.40;1.00
38359;DHT22;42072;48.044;14.416;2023-05-10T07:44:23;14.30;1.00
38359;DHT22;42072;48.044;14.416;2023-05-10T07:46:50;14.20;1.00
38359;DHT22;42072;48.044;14.416;2023-05-10T07:49:18;14.10;1.00
38359;DHT22;42072;48.044;14.416;2023-05-10T07:51:45;13.90;15.80
38359;DHT22;42072;48.044;14.416;2023-05-10T07:54:13;13.90;24.60
38359;DHT22;42072;48.044;14.416;2023-05-10T07:56:40;14.00;34.90
38359;DHT22;42072;48.044;14.416;2023-05-10T07:59:15;14.30;30.30
38359;DHT22;42072;48.044;14.416;2023-05-10T08:01:43;14.50;8.60
38359;DHT22;42072;48.044;14.416;2023-05-10T08:04:10;14.40;21.80
38359;DHT22;42072;48.044;14.416;2023-05-10T08:06:39;14.70;12.70
38359;DHT22;42072;48.044;14.416;2023-05-10T08:09:06;15.10;14.80
38359;DHT22;42072;48.044;14.416;2023-05-10T08:11:33;15.30;3.70
38359;DHT22;42072;48.044;14.416;2023-05-10T08:14:01;15.20;1.00
38359;DHT22;42072;48.044;14.416;2023-05-10T08:16:28;15.00;1.60
38359;DHT22;42072;48.044;14.416;2023-05-10T08:18:55;15.20;6.00
38359;DHT22;42072;48.044;14.416;2023-05-10T08:21:23;15.40;4.50
38359;DHT22;42072;48.044;14.416;2023-05-10T08:23:50;15.60;4.10
38359;DHT22;42072;48.044;14.416;2023-05-10T08:26:18;15.90;1.00
38359;DHT22;42072;48.044;14.416;2023-05-10T08:28:45;15.80;1.00
38359;DHT22;42072;48.044;14.416;2023-05-10T08:31:12;15.70;1.00
38359;DHT22;42072;48.044;14.416;2023-05-10T08:33:39;15.50;1.00
38359;DHT22;42072;48.044;14.416;2023-05-10T08:36:09;15.50;1.00
38359;DHT22;42072;48.044;14.416;2023-05-10T08:38:37;15.50;10.40
38359;DHT22;42072;48.044;14.416;2023-05-10T08:41:05;15.10;10.40
38359;DHT22;42072;48.044;14.416;2023-05-10T08:43:33;14.80;41.30
38359;DHT22;42072;48.044;14.416;2023-05-10T08:46:05;14.70;60.70
38359;DHT22;42072;48.044;14.416;2023-05-10T08:48:34;14.60;98.40
38359;DHT22;42072;48.044;14.416;2023-05-10T08:51:03;14.80;99.90
38359;DHT22;42072;48.044;14.416;2023-05-10T08:53:33;15.10;95.10
38359;DHT22;42072;48.044;14.416;2023-05-10T08:56:03;15.10;93.60
38359;DHT22;42072;48.044;14.416;2023-05-10T08:58:31;15.20;39.50
38359;DHT22;42072;48.044;14.416;2023-05-10T09:00:59;15.10;35.50
38359;DHT22;42072;48.044;14.416;2023-05-10T09:03:27;15.00;60.70
38359;DHT22;42072;48.044;14.416;2023-05-10T09:05:55;14.90;88.40
38359;DHT22;42072;48.044;14.416;2023-05-10T09:08:26;14.80;99.20
38359;DHT22;42072;48.044;14.416;2023-05-10T09:10:54;14.70;99.90
38359;DHT22;42072;48.044;14.416;2023-05-10T09:13:22;14.80;99.90
38359;DHT22;42072;48.044;14.416;2023-05-10T09:15:51;14.90;99.90
38359;DHT22;42072;48.044;14.416;2023-05-10T09:18:18;14.90;99.90
38359;DHT22;42072;48.044;14.416;2023-05-10T09:20:45;14.90;99.90
38359;DHT22;42072;48.044;14.416;2023-05-10T09:23:13;14.70;99.90
38359;DHT22;42072;48.044;14.416;2023-05-10T09:25:41;14.70;99.90
38359;DHT22;42072;48.044;14.416;2023-05-10T09:28:09;14.70;99.90
38359;DHT22;42072;48.044;14.416;2023-05-10T09:30:36;14.80;99.90
38359;DHT22;42072;48.044;14.416;2023-05-10T09:33:04;15.00;99.90
38359;DHT22;42072;48.044;14.416;2023-05-10T09:35:32;15.20;99.90
38359;DHT22;42072;48.044;14.416;2023-05-10T09:38:04;15.80;99.90
38359;DHT22;42072;48.044;14.416;2023-05-10T09:40:32;16.00;79.30
38359;DHT22;42072;48.044;14.416;2023-05-10T09:43:08;16.30;77.00
38359;DHT22;42072;48.044;14.416;2023-05-10T09:45:37;16.90;3.80
38359;DHT22;42072;48.044;14.416;2023-05-10T09:48:05;16.80;8.20
38359;DHT22;42072;48.044;14.416;2023-05-10T09:50:33;17.20;2.60
38359;DHT22;42072;48.044;14.416;2023-05-10T09:53:02;17.40;1.00
38359;DHT22;42072;48.044;14.416;2023-05-10T09:55:43;17.60;1.00
38359;DHT22;42072;48.044;14.416;2023-05-10T09:58:14;18.20;1.00
38359;DHT22;42072;48.044;14.416;2023-05-10T10:00:45;18.30;1.00
38359;DHT22;42072;48.044;14.416;2023-05-10T10:03:17;18.10;1.00
38359;DHT22;42072;48.044;14.416;2023-05-10T10:05:45;17.60;1.00
38359;DHT22;42072;48.044;14.416;2023-05-10T10:08:14;17.20;1.00
38359;DHT22;42072;48.044;14.416;2023-05-10T10:10:42;17.10;1.00
38359;DHT22;42072;48.044;14.416;2023-05-10T10:13:13;16.90;1.10
38359;DHT22;42072;48.044;14.416;2023-05-10T10:15:42;16.70;6.90
38359;DHT22;42072;48.044;14.416;2023-05-10T10:18:14;16.50;32.80
38359;DHT22;42072;48.044;14.416;2023-05-10T10:20:43;16.30;57.90
38359;DHT22;42072;48.044;14.416;2023-05-10T10:23:11;16.20;71.70
38359;DHT22;42072;48.044;14.416;2023-05-10T10:25:39;16.00;73.30
38359;DHT22;42072;48.044;14.416;2023-05-10T10:28:51;16.00;90.50
38359;DHT22;42072;48.044;14.416;2023-05-10T10:34:05;15.80;99.90
38359;DHT22;42072;48.044;14.416;2023-05-10T10:36:45;15.70;99.90
38359;DHT22;42072;48.044;14.416;2023-05-10T10:39:13;15.70;99.90
38359;DHT22;42072;48.044;14.416;2023-05-10T10:41:52;16.00;99.90
38359;DHT22;42072;48.044;14.416;2023-05-10T10:52:29;16.60;59.90
38359;DHT22;42072;48.044;14.416;2023-05-10T11:02:55;16.80;25.20
38359;DHT22;42072;48.044;14.416;2023-05-10T11:08:31;16.70;32.90
38359;DHT22;42072;48.044;14.416;2023-05-10T11:15:59;16.40;73.40
38359;DHT22;42072;48.044;14.416;2023-05-10T11:18:37;16.40;99.00
38359;DHT22;42072;48.044;14.416;2023-05-10T11:21:04;16.30;99.90
38359;DHT22;42072;48.044;14.416;2023-05-10T11:23:32;16.10;99.90
38359;DHT22;42072;48.044;14.416;2023-05-10T11:26:01;16.10;99.90
38359;DHT22;42072;48.044;14.416;2023-05-10T11:28:28;16.30;99.90
38359;DHT22;42072;48.044;14.416;2023-05-10T11:30:55;16.50;99.90
38359;DHT22;42072;48.044;14.416;2023-05-10T11:33:23;16.60;99.90
38359;DHT22;42072;48.044;14.416;2023-05-10T11:35:51;16.70;95.10
38359;DHT22;42072;48.044;14.416;2023-05-10T11:38:18;16.90;88.80
38359;DHT22;42072;48.044;14.416;2023-05-10T11:40:45;16.90;89.50
38359;DHT22;42072;48.044;14.416;2023-05-10T11:43:12;16.80;99.90
38359;DHT22;42072;48.044;14.416;2023-05-10T11:45:41;16.80;99.90
38359;DHT22;42072;48.044;14.416;2023-05-10T11:48:08;16.40;99.90
38359;DHT22;42072;48.044;14.416;2023-05-10T11:50:36;16.40;99.90
38359;DHT22;42072;48.044;14.416;2023-05-10T11:53:03;16.60;93.40
38359;DHT22;42072;48.044;14.416;2023-05-10T11:55:33;16.60;95.10
38359;DHT22;42072;48.044;14.416;2023-05-10T11:58:01;16.70;99.90
38359;DHT22;42072;48.044;14.416;2023-05-10T12:00:29;17.00;99.90
38359;DHT22;42072;48.044;14.416;2023-05-10T12:02:57;17.40;19.10
38359;DHT22;42072;48.044;14.416;2023-05-10T12:05:25;17.60;1.00
38359;DHT22;42072;48.044;14.416;2023-05-10T12:07:52;18.00;1.00
38359;DHT22;42072;48.044;14.416;2023-05-10T12:10:26;18.30;1.00
38359;DHT22;42072;48.044;14.416;2023-05-10T12:12:54;18.60;1.00
38359;DHT22;42072;48.044;14.416;2023-05-10T12:15:24;18.70;1.00
38359;DHT22;42072;48.044;14.416;2023-05-10T12:17:51;18.80;1.00
38359;DHT22;42072;48.044;14.416;2023-05-10T12:20:20;18.70;1.00
38359;DHT22;42072;48.044;14.416;2023-05-10T12:22:55;18.60;1.00
38359;DHT22;42072;48.044;14.416;2023-05-10T12:25:30;18.50;1.00
38359;DHT22;42072;48.044;14.416;2023-05-10T12:27:59;18.30;1.00
38359;DHT22;42072;48.044;14.416;2023-05-10T12:30:31;18.30;1.00
38359;DHT22;42072;48.044;14.416;2023-05-10T12:33:12;18.10;1.00
38359;DHT22;42072;48.044;14.416;2023-05-10T12:35:49;18.20;1.00
38359;DHT22;42072;48.044;14.416;2023-05-10T12:38:44;17.80;1.00
38359;DHT22;42072;48.044;14.416;2023-05-10T12:41:16;17.50;1.00
38359;DHT22;42072;48.044;14.416;2023-05-10T12:43:44;17.40;1.00
38359;DHT22;42072;48.044;14.416;2023-05-10T12:46:14;17.50;1.00
38359;DHT22;42072;48.044;14.416;2023-05-10T12:48:42;17.50;1.00
38359;DHT22;42072;48.044;14.416;2023-05-10T12:51:10;17.50;7.30
38359;DHT22;42072;48.044;14.416;2023-05-10T12:53:39;17.50;19.40
38359;DHT22;42072;48.044;14.416;2023-05-10T12:56:10;17.50;11.00
38359;DHT22;42072;48.044;14.416;2023-05-10T12:58:38;17.40;1.00
38359;DHT22;42072;48.044;14.416;2023-05-10T13:01:05;17.30;4.20
38359;DHT22;42072;48.044;14.416;2023-05-10T13:03:32;17.20;31.50
38359;DHT22;42072;48.044;14.416;2023-05-10T13:06:00;17.20;23.90
38359;DHT22;42072;48.044;14.416;2023-05-10T13:08:27;17.10;16.30
38359;DHT22;42072;48.044;14.416;2023-05-10T13:10:56;17.10;26.20
38359;DHT22;42072;48.044;14.416;2023-05-10T13:13:23;17.20;60.30
38359;DHT22;42072;48.044;14.416;2023-05-10T13:15:50;17.30;48.20
38359;DHT22;42072;48.044;14.416;2023-05-10T13:18:17;17.40;31.40
38359;DHT22;42072;48.044;14.416;2023-05-10T13:20:45;17.40;31.20
38359;DHT22;42072;48.044;14.416;2023-05-10T13:23:12;17.40;30.40
38359;DHT22;42072;48.044;14.416;2023-05-10T13:25:40;17.50;35.20
38359;DHT22;42072;48.044;14.416;2023-05-10T13:28:08;17.60;46.70
38359;DHT22;42072;48.044;14.416;2023-05-10T13:30:35;17.70;23.50
38359;DHT22;42072;48.044;14.416;2023-05-10T13:33:02;17.70;31.70
38359;DHT22;42072;48.044;14.416;2023-05-10T13:35:29;17.50;1.00
38359;DHT22;42072;48.044;14.416;2023-05-10T13:37:56;17.30;1.00
38359;DHT22;42072;48.044;14.416;2023-05-10T13:40:24;17.40;14.00
38359;DHT22;42072;48.044;14.416;2023-05-10T13:42:51;17.40;1.00
38359;DHT22;42072;48.044;14.416;2023-05-10T13:45:19;17.50;1.00
38359;DHT22;42072;48.044;14.416;2023-05-10T13:47:46;17.40;1.00
38359;DHT22;42072;48.044;14.416;2023-05-10T13:50:14;17.40;1.00
38359;DHT22;42072;48.044;14.416;2023-05-10T13:52:41;17.30;4.70
38359;DHT22;42072;48.044;14.416;2023-05-10T13:55:08;17.20;20.10
38359;DHT22;42072;48.044;14.416;2023-05-10T13:57:35;17.20;27.20
38359;DHT22;42072;48.044;14.416;2023-05-10T14:00:04;17.10;33.90
38359;DHT22;42072;48.044;14.416;2023-05-10T14:02:31;17.10;59.00
38359;DHT22;42072;48.044;14.416;2023-05-10T14:04:58;17.10;45.30
38359;DHT22;42072;48.044;14.416;2023-05-10T14:07:25;17.00;67.30
38359;DHT22;42072;48.044;14.416;2023-05-10T14:09:52;16.80;73.60
38359;DHT22;42072;48.044;14.416;2023-05-10T14:12:19;16.80;78.60
38359;DHT22;42072;48.044;14.416;2023-05-10T14:14:47;16.70;91.70
38359;DHT22;42072;48.044;14.416;2023-05-10T14:17:14;16.60;82.90
38359;DHT22;42072;48.044;14.416;2023-05-10T14:19:41;16.60;77.30
38359;DHT22;42072;48.044;14.416;2023-05-10T14:22:08;16.50;89.90
38359;DHT22;42072;48.044;14.416;2023-05-10T14:24:35;16.40;83.50
38359;DHT22;42072;48.044;14.416;2023-05-10T14:27:02;16.50;90.90
38359;DHT22;42072;48.044;14.416;2023-05-10T14:29:29;16.40;87.30
38359;DHT22;42072;48.044;14.416;2023-05-10T14:31:56;16.40;68.30
38359;DHT22;42072;48.044;14.416;2023-05-10T14:34:23;16.50;66.40
38359;DHT22;42072;48.044;14.416;2023-05-10T14:36:50;16.50;53.30
38359;DHT22;42072;48.044;14.416;2023-05-10T14:39:18;16.60;70.90
38359;DHT22;42072;48.044;14.416;2023-05-10T14:41:45;16.60;63.30
38359;DHT22;42072;48.044;14.416;2023-05-10T14:44:12;16.60;75.40
38359;DHT22;42072;48.044;14.416;2023-05-10T14:46:39;16.40;77.40
38359;DHT22;42072;48.044;14.416;2023-05-10T14:49:07;16.20;81.20
38359;DHT22;42072;48.044;14.416;2023-05-10T14:51:34;16.20;99.90
38359;DHT22;42072;48.044;14.416;2023-05-10T14:54:03;16.10;99.90
38359;DHT22;42072;48.044;14.416;2023-05-10T14:56:31;16.10;99.90
38359;DHT22;42072;48.044;14.416;2023-05-10T14:58:58;16.10;99.20
38359;DHT22;42072;48.044;14.416;2023-05-10T15:01:26;16.10;99.90
38359;DHT22;42072;48.044;14.416;2023-05-10T15:03:54;16.20;94.50
38359;DHT22;42072;48.044;14.416;2023-05-10T15:06:31;16.10;90.30
38359;DHT22;42072;48.044;14.416;2023-05-10T15:08:58;16.20;97.30
38359;DHT22;42072;48.044;14.416;2023-05-10T15:11:26;16.20;77.40
38359;DHT22;42072;48.044;14.416;2023-05-10T15:13:53;16.10;89.50
38359;DHT22;42072;48.044;14.416;2023-05-10T15:16:20;16.00;92.70
38359;DHT22;42072;48.044;14.416;2023-05-10T15:18:48;15.90;99.90
38359;DHT22;42072;48.044;14.416;2023-05-10T15:21:15;15.80;99.90
38359;DHT22;42072;48.044;14.416;2023-05-10T15:23:42;15.70;99.90
38359;DHT22;42072;48.044;14.416;2023-05-10T15:26:09;15.70;99.90
38359;DHT22;42072;48.044;14.416;2023-05-10T15:28:37;15.60;99.90
38359;DHT22;42072;48.044;14.416;2023-05-10T15:31:04;15.60;99.90
38359;DHT22;42072;48.044;14.416;2023-05-10T15:33:31;15.60;99.90
38359;DHT22;42072;48.044;14.416;2023-05-10T15:35:58;15.70;99.90
38359;DHT22;42072;48.044;14.416;2023-05-10T15:38:25;15.70;99.90
38359;DHT22;42072;48.044;14.416;2023-05-10T15:40:56;15.70;99.90
38359;DHT22;42072;48.044;14.416;2023-05-10T15:43:24;15.70;99.90
38359;DHT22;42072;48.044;14.416;2023-05-10T15:45:52;15.80;99.90
38359;DHT22;42072;48.044;14.416;2023-05-10T15:48:19;15.80;99.90
38359;DHT22;42072;48.044;14.416;2023-05-10T15:50:46;15.90;99.90
38359;DHT22;42072;48.044;14.416;2023-05-10T15:53:13;16.00;99.90
38359;DHT22;42072;48.044;14.416;2023-05-10T15:55:40;16.00;99.90
38359;DHT22;42072;48.044;14.416;2023-05-10T15:58:08;15.90;99.90
38359;DHT22;42072;48.044;14.416;2023-05-10T16:00:35;16.00;99.90
38359;DHT22;42072;48.044;14.416;2023-05-10T16:03:05;15.90;99.90
38359;DHT22;42072;48.044;14.416;2023-05-10T16:05:33;16.00;99.90
38359;DHT22;42072;48.044;14.416;2023-05-10T16:08:01;15.90;99.90
38359;DHT22;42072;48.044;14.416;2023-05-10T16:10:31;15.90;99.90
38359;DHT22;42072;48.044;14.416;2023-05-10T16:12:59;15.90;99.90
38359;DHT22;42072;48.044;14.416;2023-05-10T16:15:26;15.90;99.90
38359;DHT22;42072;48.044;14.416;2023-05-10T16:17:53;15.90;99.90
38359;DHT22;42072;48.044;14.416;2023-05-10T16:20:21;15.70;99.90
38359;DHT22;42072;48.044;14.416;2023-05-10T16:22:48;15.70;99.90
38359;DHT22;42072;48.044;14.416;2023-05-10T16:25:15;15.60;99.90
38359;DHT22;42072;48.044;14.416;2023-05-10T16:27:43;15.50;99.90